createdAt,value
2023-02-24T00:00:47.346Z,98026.19
2023-02-24T00:03:16.928Z,98016.75
2023-02-24T00:05:50.153Z,98016.75
2023-02-24T00:08:19.427Z,98008.53
2023-02-24T00:10:48.651Z,98006.72
2023-02-24T00:13:22.367Z,98009.09
2023-02-24T00:16:02.944Z,98013.31
2023-02-24T00:18:33.499Z,98010.09
2023-02-24T00:21:10.615Z,97998.06
2023-02-24T00:23:41.176Z,97995.47
2023-02-24T00:26:12.836Z,97990.06
2023-02-24T00:28:43.148Z,97983.00
2023-02-24T00:31:16.845Z,97986.41
2023-02-24T00:33:47.536Z,97979.19
2023-02-24T00:36:24.255Z,97978.59
2023-02-24T00:39:00.262Z,97972.75
2023-02-24T00:41:33.570Z,97972.75
2023-02-24T00:44:08.610Z,97975.19
2023-02-24T00:46:44.866Z,97977.56
2023-02-24T00:49:18.616Z,97976.50
2023-02-24T00:51:49.483Z,97971.72
2023-02-24T00:54:19.088Z,97962.69
2023-02-24T00:56:50.515Z,97962.06
2023-02-24T00:59:21.702Z,97956.69
2023-02-24T01:01:51.188Z,97951.06
2023-02-24T01:04:22.271Z,97946.28
2023-02-24T01:07:00.549Z,97944.84
2023-02-24T01:09:32.519Z,97944.63
2023-02-24T01:12:22.038Z,97934.59
2023-02-24T01:14:53.715Z,97941.41
2023-02-24T01:17:23.709Z,97942.41
2023-02-24T01:19:55.122Z,97932.16
2023-02-24T01:22:25.244Z,97934.75
2023-02-24T01:24:54.601Z,97929.75
2023-02-24T01:27:23.860Z,97927.97
2023-02-24T01:29:53.630Z,97925.34
2023-02-24T01:32:24.436Z,97916.97
2023-02-24T01:34:53.971Z,97913.13
2023-02-24T01:37:24.097Z,97905.34
2023-02-24T01:39:53.450Z,97898.72
2023-02-24T01:42:23.517Z,97900.13
2023-02-24T01:44:52.726Z,97893.56
2023-02-24T01:47:23.644Z,97882.16
2023-02-24T01:49:55.012Z,97878.38
2023-02-24T01:52:31.106Z,97867.13
2023-02-24T01:55:14.596Z,97863.28
2023-02-24T01:57:46.282Z,97870.09
2023-02-24T02:00:32.831Z,97870.91
2023-02-24T02:03:31.227Z,97867.31
2023-02-24T02:06:09.354Z,97863.28
2023-02-24T02:08:42.685Z,97864.91
2023-02-24T02:11:21.366Z,97864.09
2023-02-24T02:13:53.689Z,97859.88
2023-02-24T02:17:03.409Z,97849.66
2023-02-24T02:19:58.025Z,97859.88
2023-02-24T02:23:07.545Z,97858.09
2023-02-24T02:26:18.964Z,97856.25
2023-02-24T02:29:12.759Z,97859.66
2023-02-24T02:32:03.790Z,97840.69
2023-02-24T02:35:37.152Z,97850.06
2023-02-24T02:38:26.092Z,97848.19
2023-02-24T02:41:19.725Z,97847.81
2023-02-24T02:44:04.962Z,97846.56
2023-02-24T02:47:25.560Z,97841.78
2023-02-24T02:50:27.483Z,97839.56
2023-02-24T02:53:37.655Z,97832.38
2023-02-24T02:56:18.022Z,97836.31
2023-02-24T02:58:53.620Z,97833.97
2023-02-24T03:01:32.064Z,97826.19
2023-02-24T03:04:08.434Z,97819.16
2023-02-24T03:06:47.405Z,97815.19
2023-02-24T03:09:30.535Z,97812.00
2023-02-24T03:12:09.357Z,97810.84
2023-02-24T03:14:57.538Z,97806.88
2023-02-24T03:17:41.602Z,97803.69
2023-02-24T03:20:22.527Z,97814.91
2023-02-24T03:22:59.360Z,97803.09
2023-02-24T03:25:46.563Z,97802.50
2023-02-24T03:28:35.889Z,97796.13
2023-02-24T03:31:23.597Z,97803.75
2023-02-24T03:34:15.082Z,97804.31
2023-02-24T03:36:44.757Z,97795.09
2023-02-24T03:39:15.871Z,97801.09
2023-02-24T03:42:18.261Z,97797.31
2023-02-24T03:44:48.834Z,97798.31
2023-02-24T03:47:20.473Z,97796.50
2023-02-24T03:49:51.336Z,97788.69
2023-02-24T03:52:59.849Z,97788.50
2023-02-24T03:55:44.894Z,97784.50
2023-02-24T03:58:34.913Z,97776.50
2023-02-24T04:01:34.987Z,97768.50
2023-02-24T04:04:27.527Z,97761.31
2023-02-24T04:07:17.390Z,97752.50
2023-02-24T04:10:22.008Z,97764.13
2023-02-24T04:13:05.146Z,97757.31
2023-02-24T04:15:57.379Z,97755.09
2023-02-24T04:18:31.700Z,97750.53
2023-02-24T04:21:05.479Z,97748.16
2023-02-24T04:23:43.438Z,97747.75
2023-02-24T04:26:16.846Z,97743.16
2023-02-24T04:28:49.836Z,97736.53
2023-02-24T04:31:21.704Z,97734.75
2023-02-24T04:33:53.475Z,97732.34
2023-02-24T04:36:30.555Z,97726.34
2023-02-24T04:38:59.971Z,97725.75
2023-02-24T04:41:29.679Z,97725.94
2023-02-24T04:43:58.988Z,97718.94
2023-02-24T04:46:32.424Z,97723.75
2023-02-24T04:49:02.313Z,97702.94
2023-02-24T04:51:32.580Z,97702.94
2023-02-24T04:54:03.759Z,97697.34
2023-02-24T04:56:33.036Z,97693.34
2023-02-24T04:59:03.755Z,97699.75
2023-02-24T05:01:33.213Z,97704.53
2023-02-24T05:04:03.233Z,97698.53
2023-02-24T05:06:32.827Z,97692.16
2023-02-24T05:09:11.369Z,97686.34
2023-02-24T05:11:43.137Z,97692.16
2023-02-24T05:14:14.913Z,97685.78
2023-02-24T05:16:47.279Z,97676.75
2023-02-24T05:19:42.924Z,97676.75
2023-02-24T05:22:14.563Z,97677.75
2023-02-24T05:24:43.923Z,97684.16
2023-02-24T05:27:16.246Z,97670.38
2023-02-24T05:29:45.571Z,97669.56
2023-02-24T05:32:16.829Z,97664.50
2023-02-24T05:34:46.280Z,97674.13
2023-02-24T05:37:16.751Z,97671.72
2023-02-24T05:39:46.084Z,97670.13
2023-02-24T05:42:15.539Z,97669.13
2023-02-24T05:44:44.910Z,97666.91
2023-02-24T05:47:14.206Z,97672.94
2023-02-24T05:49:43.898Z,97665.94
2023-02-24T05:52:14.485Z,97665.13
2023-02-24T05:54:45.525Z,97664.56
2023-02-24T05:57:24.859Z,97671.34
2023-02-24T05:59:55.958Z,97652.13
2023-02-24T06:02:29.224Z,97660.75
2023-02-24T06:05:00.959Z,97657.34
2023-02-24T06:07:35.448Z,97667.53
2023-02-24T06:10:09.995Z,97662.16
2023-02-24T06:12:39.978Z,97662.34
2023-02-24T06:15:09.989Z,97655.75
2023-02-24T06:17:39.684Z,97663.75
2023-02-24T06:20:15.838Z,97658.16
2023-02-24T06:22:45.239Z,97659.78
2023-02-24T06:25:14.639Z,97655.34
2023-02-24T06:27:43.916Z,97658.56
2023-02-24T06:30:15.270Z,97659.97
2023-02-24T06:32:45.063Z,97655.78
2023-02-24T06:35:15.529Z,97654.78
2023-02-24T06:37:45.499Z,97653.78
2023-02-24T06:40:18.065Z,97654.38
2023-02-24T06:42:57.177Z,97646.16
2023-02-24T06:45:26.967Z,97648.56
2023-02-24T06:47:56.234Z,97652.97
2023-02-24T06:50:25.554Z,97644.78
2023-02-24T06:53:01.204Z,97648.78
2023-02-24T06:55:30.446Z,97646.78
2023-02-24T06:58:04.853Z,97642.59
2023-02-24T07:00:38.849Z,97647.78
2023-02-24T07:03:17.513Z,97640.97
2023-02-24T07:05:51.012Z,97642.78
2023-02-24T07:08:23.835Z,97637.78
2023-02-24T07:10:56.054Z,97634.56
2023-02-24T07:13:29.966Z,97637.38
2023-02-24T07:16:07.299Z,97636.38
2023-02-24T07:18:41.707Z,97631.78
2023-02-24T07:21:12.624Z,97624.19
2023-02-24T07:23:46.027Z,97629.38
2023-02-24T07:26:19.830Z,97628.97
2023-02-24T07:28:49.984Z,97629.56
2023-02-24T07:31:24.249Z,97626.97
2023-02-24T07:33:57.361Z,97635.78
2023-02-24T07:36:30.254Z,97627.59
2023-02-24T07:39:00.086Z,97620.97
2023-02-24T07:41:31.275Z,97624.56
2023-02-24T07:44:03.418Z,97620.97
2023-02-24T07:46:33.588Z,97615.97
2023-02-24T07:49:04.217Z,97615.94
2023-02-24T07:51:33.495Z,97622.56
2023-02-24T07:54:03.569Z,97615.94
2023-02-24T07:56:33.001Z,97617.53
2023-02-24T07:59:11.267Z,97618.53
2023-02-24T08:01:40.544Z,97613.75
2023-02-24T08:04:12.977Z,97613.16
2023-02-24T08:06:50.249Z,97600.50
2023-02-24T08:09:21.163Z,97598.91
2023-02-24T08:11:53.903Z,97597.28
2023-02-24T08:14:27.048Z,97587.25
2023-02-24T08:17:00.133Z,97590.84
2023-02-24T08:19:33.244Z,97595.41
2023-02-24T08:22:20.715Z,97578.78
2023-02-24T08:24:56.767Z,97584.56
2023-02-24T08:27:31.837Z,97585.56
2023-02-24T08:30:04.053Z,97581.53
2023-02-24T08:32:45.013Z,97574.66
2023-02-24T08:35:16.841Z,97575.03
2023-02-24T08:37:50.402Z,97578.03
2023-02-24T08:40:33.836Z,97574.97
2023-02-24T08:43:19.279Z,97573.53
2023-02-24T08:46:03.821Z,97565.28
2023-02-24T08:48:38.736Z,97570.09
2023-02-24T08:51:30.008Z,97563.63
2023-02-24T08:54:27.207Z,97558.81
2023-02-24T08:56:57.919Z,97551.16
2023-02-24T08:59:43.427Z,97551.69
2023-02-24T09:02:27.481Z,97552.47
2023-02-24T09:05:12.475Z,97551.47
2023-02-24T09:07:43.348Z,97540.03
2023-02-24T09:10:18.663Z,97550.00
2023-02-24T09:12:49.268Z,97542.44
2023-02-24T09:15:20.652Z,97541.66
2023-02-24T09:17:50.364Z,97542.66
2023-02-24T09:20:25.896Z,97532.22
2023-02-24T09:23:08.988Z,97533.41
2023-02-24T09:25:49.558Z,97526.59
2023-02-24T09:28:27.288Z,97522.97
2023-02-24T09:31:00.402Z,97522.97
2023-02-24T09:33:39.115Z,97531.56
2023-02-24T09:36:19.995Z,97533.22
2023-02-24T09:38:59.402Z,97523.66
2023-02-24T09:42:03.977Z,97523.06
2023-02-24T09:44:45.117Z,97513.38
2023-02-24T09:47:39.572Z,97505.16
2023-02-24T09:50:46.852Z,97506.25
2023-02-24T09:53:17.483Z,97510.34
2023-02-24T09:56:00.920Z,97501.34
2023-02-24T09:59:05.039Z,97496.44
2023-02-24T10:02:02.275Z,97497.97
2023-02-24T10:05:38.384Z,97510.66
2023-02-24T10:08:26.145Z,97493.19
2023-02-24T10:11:07.264Z,97488.81
2023-02-24T10:13:54.772Z,97488.47
2023-02-24T10:16:25.491Z,97476.63
2023-02-24T10:19:16.594Z,97470.00
2023-02-24T10:22:03.206Z,97467.53
2023-02-24T10:24:47.536Z,97467.41
2023-02-24T10:27:27.349Z,97468.84
2023-02-24T10:30:19.884Z,97452.19
2023-02-24T10:33:00.518Z,97452.59
2023-02-24T10:35:34.166Z,97446.13
2023-02-24T10:38:05.542Z,97441.25
2023-02-24T10:40:56.830Z,97441.47
2023-02-24T10:43:30.709Z,97447.09
2023-02-24T10:46:17.459Z,97438.31
2023-02-24T10:49:00.712Z,97444.56
2023-02-24T10:51:38.534Z,97440.13
2023-02-24T10:54:25.087Z,97434.47
2023-02-24T10:57:29.996Z,97438.78
2023-02-24T11:00:18.648Z,97438.50
2023-02-24T11:03:10.638Z,97434.78
2023-02-24T11:05:56.618Z,97416.00
2023-02-24T11:08:54.667Z,97417.38
2023-02-24T11:11:51.926Z,97405.75
2023-02-24T11:14:39.976Z,97394.44
2023-02-24T11:17:27.770Z,97379.56
2023-02-24T11:20:10.962Z,97389.84
2023-02-24T11:22:45.832Z,97385.94
2023-02-24T11:25:39.612Z,97368.31
2023-02-24T11:28:52.012Z,97355.66
2023-02-24T11:31:59.329Z,97354.75
2023-02-24T11:34:55.588Z,97349.19
2023-02-24T11:37:48.761Z,97353.03
2023-02-24T11:40:27.754Z,97346.44
2023-02-24T11:43:18.657Z,97340.41
2023-02-24T11:46:00.729Z,97340.88
2023-02-24T11:48:42.824Z,97342.47
2023-02-24T11:51:20.185Z,97341.69
2023-02-24T11:54:06.423Z,97341.22
2023-02-24T11:56:47.083Z,97341.13
2023-02-24T11:59:30.362Z,97335.84
2023-02-24T12:02:30.984Z,97335.31
2023-02-24T12:05:14.819Z,97324.09
2023-02-24T12:08:02.834Z,97332.56
2023-02-24T12:10:50.553Z,97321.41
2023-02-24T12:14:25.871Z,97321.22
2023-02-24T12:17:42.518Z,97315.47
2023-02-24T12:20:41.706Z,97319.13
2023-02-24T12:23:51.067Z,97309.47
2023-02-24T12:27:15.343Z,97302.53
2023-02-24T12:30:34.130Z,97306.03
2023-02-24T12:33:13.815Z,97303.22
2023-02-24T12:36:26.032Z,97295.81
2023-02-24T12:39:46.014Z,97288.56
2023-02-24T12:42:35.004Z,97285.28
2023-02-24T12:45:36.043Z,97283.84
2023-02-24T12:48:46.704Z,97282.59
2023-02-24T12:52:13.951Z,97279.31
2023-02-24T12:55:07.362Z,97271.38
2023-02-24T12:57:52.760Z,97272.22
2023-02-24T13:00:36.129Z,97264.50
2023-02-24T13:03:43.436Z,97267.22
2023-02-24T13:06:41.816Z,97260.72
2023-02-24T13:09:36.160Z,97257.75
2023-02-24T13:12:31.888Z,97249.34
2023-02-24T13:15:04.740Z,97250.13
2023-02-24T13:17:34.288Z,97247.78
2023-02-24T13:20:14.477Z,97243.78
2023-02-24T13:22:44.693Z,97248.44
2023-02-24T13:25:37.753Z,97241.41
2023-02-24T13:28:27.377Z,97236.63
2023-02-24T13:31:13.625Z,97237.88
2023-02-24T13:33:44.979Z,97236.72
2023-02-24T13:36:25.861Z,97233.78
2023-02-24T13:39:01.153Z,97232.13
2023-02-24T13:41:30.352Z,97229.19
2023-02-24T13:44:22.196Z,97218.66
2023-02-24T13:47:40.481Z,97214.56
2023-02-24T13:50:43.058Z,97206.41
2023-02-24T13:53:24.425Z,97206.41
2023-02-24T13:56:21.556Z,97206.97
2023-02-24T13:59:26.369Z,97216.41
2023-02-24T14:02:19.410Z,97204.38
2023-02-24T14:04:55.862Z,97201.31
2023-02-24T14:07:37.260Z,97194.22
2023-02-24T14:10:19.807Z,97195.69
2023-02-24T14:12:51.259Z,97188.06
2023-02-24T14:15:26.422Z,97180.16
2023-02-24T14:18:00.336Z,97180.94
2023-02-24T14:20:35.389Z,97185.81
2023-02-24T14:23:23.420Z,97180.25
2023-02-24T14:26:08.054Z,97173.63
2023-02-24T14:28:39.813Z,97171.56
2023-02-24T14:31:16.489Z,97165.75
2023-02-24T14:33:46.155Z,97159.53
2023-02-24T14:36:21.599Z,97162.34
2023-02-24T14:39:16.947Z,97164.06
2023-02-24T14:41:47.935Z,97164.28
2023-02-24T14:44:30.490Z,97154.16
2023-02-24T14:47:06.567Z,97143.03
2023-02-24T14:49:36.462Z,97147.09
2023-02-24T14:52:39.476Z,97140.63
2023-02-24T14:55:47.158Z,97134.13
2023-02-24T14:58:29.364Z,97126.97
2023-02-24T15:01:07.010Z,97130.03
2023-02-24T15:03:48.555Z,97135.34
2023-02-24T15:06:40.723Z,97124.00
2023-02-24T15:09:24.401Z,97125.31
2023-02-24T15:11:56.253Z,97124.94
2023-02-24T15:14:30.843Z,97119.53
2023-02-24T15:17:22.220Z,97108.50
2023-02-24T15:19:54.787Z,97113.72
2023-02-24T15:22:34.838Z,97105.69
2023-02-24T15:25:16.089Z,97104.09
2023-02-24T15:28:04.344Z,97093.56
2023-02-24T15:30:53.407Z,97095.59
2023-02-24T15:33:25.989Z,97089.78
2023-02-24T15:35:59.435Z,97086.59
2023-02-24T15:38:38.929Z,97085.00
2023-02-24T15:41:11.408Z,97087.63
2023-02-24T15:43:53.174Z,97077.66
2023-02-24T15:46:29.719Z,97077.28
2023-02-24T15:49:03.275Z,97075.50
2023-02-24T15:51:38.643Z,97068.69
2023-02-24T15:54:15.357Z,97071.88
2023-02-24T15:56:46.671Z,97077.50
2023-02-24T15:59:22.107Z,97076.38
2023-02-24T16:01:54.412Z,97074.41
2023-02-24T16:04:24.581Z,97066.19
2023-02-24T16:06:57.086Z,97062.34
2023-02-24T16:09:41.071Z,97062.91
2023-02-24T16:12:28.785Z,97064.50
2023-02-24T16:15:02.615Z,97055.66
2023-02-24T16:17:35.488Z,97053.94
2023-02-24T16:20:17.606Z,97057.56
2023-02-24T16:22:46.946Z,97051.22
2023-02-24T16:25:17.294Z,97042.84
2023-02-24T16:27:46.681Z,97051.06
2023-02-24T16:30:22.649Z,97043.69
2023-02-24T16:32:53.060Z,97041.25
2023-02-24T16:35:22.564Z,97033.00
2023-02-24T16:37:52.121Z,97025.19
2023-02-24T16:40:36.586Z,97023.13
2023-02-24T16:43:05.886Z,97013.19
2023-02-24T16:45:38.525Z,97013.63
2023-02-24T16:48:25.094Z,97002.97
2023-02-24T16:50:54.484Z,97003.19
2023-02-24T16:53:24.547Z,96998.78
2023-02-24T16:55:54.045Z,97002.78
2023-02-24T16:58:23.588Z,97008.78
2023-02-24T17:00:59.169Z,97009.56
2023-02-24T17:03:47.079Z,97005.38
2023-02-24T17:06:16.539Z,97003.78
2023-02-24T17:08:47.276Z,96987.38
2023-02-24T17:11:20.436Z,96993.59
2023-02-24T17:13:49.785Z,96990.06
2023-02-24T17:16:19.194Z,96990.50
2023-02-24T17:18:48.477Z,96990.13
2023-02-24T17:21:18.519Z,96990.59
2023-02-24T17:23:47.834Z,96986.59
2023-02-24T17:26:17.590Z,96986.97
2023-02-24T17:28:46.821Z,96981.78
2023-02-24T17:31:16.243Z,96980.59
2023-02-24T17:33:45.559Z,96978.38
2023-02-24T17:36:15.078Z,96971.56
2023-02-24T17:38:44.486Z,96956.75
2023-02-24T17:41:13.800Z,96960.38
2023-02-24T17:43:43.067Z,96945.97
2023-02-24T17:46:12.402Z,96957.09
2023-02-24T17:48:41.685Z,96951.88
2023-02-24T17:51:16.208Z,96933.13
2023-02-24T17:53:46.085Z,96932.06
2023-02-24T17:56:15.370Z,96931.06
2023-02-24T17:58:44.657Z,96932.31
2023-02-24T18:01:14.044Z,96934.47
2023-02-24T18:03:43.334Z,96933.66
2023-02-24T18:06:13.457Z,96929.63
2023-02-24T18:08:42.963Z,96930.41
2023-02-24T18:11:17.333Z,96923.03
2023-02-24T18:13:50.849Z,96907.19
2023-02-24T18:16:20.694Z,96913.53
2023-02-24T18:18:50.969Z,96901.88
2023-02-24T18:21:20.468Z,96895.88
2023-02-24T18:23:50.175Z,96900.66
2023-02-24T18:26:21.473Z,96900.09
2023-02-24T18:28:53.825Z,96895.88
2023-02-24T18:31:28.078Z,96886.50
2023-02-24T18:33:58.289Z,96895.88
2023-02-24T18:36:28.014Z,96904.72
2023-02-24T18:38:58.123Z,96900.63
2023-02-24T18:41:27.848Z,96911.25
2023-02-24T18:43:57.631Z,96893.28
2023-02-24T18:46:27.766Z,96876.88
2023-02-24T18:48:57.423Z,96873.53
2023-02-24T18:51:28.959Z,96879.78
2023-02-24T18:54:00.604Z,96871.97
2023-02-24T18:56:34.800Z,96858.03
2023-02-24T18:59:04.604Z,96836.31
2023-02-24T19:01:38.694Z,96846.13
2023-02-24T19:04:09.017Z,96844.97
2023-02-24T19:06:38.601Z,96847.78
2023-02-24T19:09:11.197Z,96851.03
2023-02-24T19:11:42.751Z,96846.31
2023-02-24T19:14:14.006Z,96835.66
2023-02-24T19:16:43.489Z,96840.44
2023-02-24T19:19:16.121Z,96841.66
2023-02-24T19:21:46.106Z,96833.63
2023-02-24T19:24:17.360Z,96829.81
2023-02-24T19:26:47.623Z,96822.59
2023-02-24T19:29:17.610Z,96826.78
2023-02-24T19:31:47.215Z,96826.34
2023-02-24T19:34:16.605Z,96815.13
2023-02-24T19:36:45.991Z,96817.53
2023-02-24T19:39:17.743Z,96821.56
2023-02-24T19:41:49.464Z,96827.41
2023-02-24T19:44:19.232Z,96824.38
2023-02-24T19:46:48.594Z,96816.94
2023-02-24T19:49:17.918Z,96804.50
2023-02-24T19:51:48.312Z,96797.56
2023-02-24T19:54:17.811Z,96802.63
2023-02-24T19:56:47.094Z,96784.91
2023-02-24T19:59:17.744Z,96785.22
2023-02-24T20:01:51.765Z,96793.59
2023-02-24T20:04:23.151Z,96794.41
2023-02-24T20:06:52.584Z,96788.06
2023-02-24T20:09:22.321Z,96791.22
2023-02-24T20:11:52.252Z,96794.28
2023-02-24T20:14:21.629Z,96804.13
2023-02-24T20:16:51.027Z,96808.94
2023-02-24T20:19:20.362Z,96800.03
2023-02-24T20:21:50.035Z,96817.34
2023-02-24T20:24:20.231Z,96808.63
2023-02-24T20:26:49.976Z,96821.88
2023-02-24T20:29:21.884Z,96821.13
2023-02-24T20:31:54.060Z,96824.22
2023-02-24T20:34:23.471Z,96826.50
2023-02-24T20:36:53.362Z,96794.16
2023-02-24T20:39:25.022Z,96789.66
2023-02-24T20:41:55.106Z,96788.81
2023-02-24T20:44:24.679Z,96785.75
2023-02-24T20:46:54.237Z,96774.56
2023-02-24T20:49:23.764Z,96775.56
2023-02-24T20:51:53.276Z,96759.41
2023-02-24T20:54:23.989Z,96765.41
2023-02-24T20:56:53.471Z,96759.19
2023-02-24T20:59:23.836Z,96745.16
2023-02-24T21:01:53.390Z,96739.97
2023-02-24T21:04:22.751Z,96719.41
2023-02-24T21:06:53.023Z,96718.03
2023-02-24T21:09:22.347Z,96713.88
2023-02-24T21:11:51.602Z,96697.69
2023-02-24T21:14:22.353Z,96700.06
2023-02-24T21:16:51.863Z,96697.91
2023-02-24T21:19:21.167Z,96693.28
2023-02-24T21:21:50.430Z,96690.09
2023-02-24T21:24:19.766Z,96690.91
2023-02-24T21:26:49.064Z,96687.28
2023-02-24T21:29:18.437Z,96689.78
2023-02-24T21:31:48.900Z,96680.41
2023-02-24T21:34:19.099Z,96693.72
2023-02-24T21:36:48.437Z,96687.75
2023-02-24T21:39:18.596Z,96680.66
2023-02-24T21:41:48.137Z,96687.56
2023-02-24T21:44:17.542Z,96677.06
2023-02-24T21:46:46.855Z,96688.38
2023-02-24T21:49:18.294Z,96691.53
2023-02-24T21:51:50.709Z,96701.28
2023-02-24T21:54:19.970Z,96694.06
2023-02-24T21:56:49.281Z,96704.00
2023-02-24T21:59:18.732Z,96700.38
2023-02-24T22:01:48.082Z,96700.84
2023-02-24T22:04:19.317Z,96693.22
2023-02-24T22:06:49.126Z,96698.09
2023-02-24T22:09:21.583Z,96684.88
2023-02-24T22:11:51.672Z,96656.41
2023-02-24T22:14:21.422Z,96645.19
2023-02-24T22:16:50.771Z,96661.84
2023-02-24T22:19:20.212Z,96658.84
2023-02-24T22:21:49.517Z,96642.00
2023-02-24T22:24:18.918Z,96627.13
2023-02-24T22:26:48.174Z,96622.25
2023-02-24T22:29:17.457Z,96624.06
2023-02-24T22:31:49.804Z,96616.47
2023-02-24T22:34:19.492Z,96614.88
2023-02-24T22:36:48.807Z,96602.34
2023-02-24T22:39:18.404Z,96591.16
2023-02-24T22:41:51.559Z,96589.47
2023-02-24T22:44:21.226Z,96581.09
2023-02-24T22:46:50.586Z,96577.75
2023-02-24T22:49:19.978Z,96592.75
2023-02-24T22:51:49.317Z,96584.97
2023-02-24T22:54:19.235Z,96563.94
2023-02-24T22:56:48.809Z,96542.09
2023-02-24T22:59:18.071Z,96522.38
2023-02-24T23:01:47.360Z,96518.50
2023-02-24T23:04:18.189Z,96502.59
2023-02-24T23:06:47.810Z,96507.44
2023-02-24T23:09:20.224Z,96522.69
2023-02-24T23:11:49.598Z,96533.75
2023-02-24T23:14:18.941Z,96520.31
2023-02-24T23:16:55.947Z,96536.47
2023-02-24T23:19:25.724Z,96526.75
2023-02-24T23:21:56.271Z,96519.31
2023-02-24T23:24:25.819Z,96517.59
2023-02-24T23:26:57.617Z,96507.56
2023-02-24T23:29:27.747Z,96505.84
2023-02-24T23:31:57.576Z,96510.25
2023-02-24T23:34:27.181Z,96504.38
2023-02-24T23:36:56.441Z,96502.91
2023-02-24T23:39:25.878Z,96503.47
2023-02-24T23:41:57.539Z,96514.97
2023-02-24T23:44:27.211Z,96512.06
2023-02-24T23:46:58.286Z,96513.41
2023-02-24T23:49:39.067Z,96497.25
2023-02-24T23:52:15.738Z,96503.13
2023-02-24T23:54:50.093Z,96506.28
2023-02-24T23:57:21.536Z,96504.50
2023-02-24T23:59:50.873Z,96492.41
